createdAt,value
2023-07-24T00:00:04.634Z,97833.78
2023-07-24T00:03:06.121Z,97853.38
2023-07-24T00:06:07.627Z,97841.47
2023-07-24T00:09:09.056Z,97825.47
2023-07-24T00:12:10.438Z,97795.78
2023-07-24T00:15:11.991Z,97772.06
2023-07-24T00:18:13.380Z,97779.91
2023-07-24T00:21:14.850Z,97773.59
2023-07-24T00:24:16.379Z,97771.28
2023-07-24T00:27:17.812Z,97802.38
2023-07-24T00:30:19.339Z,97831.91
2023-07-24T00:33:20.758Z,97840.16
2023-07-24T00:36:23.362Z,97842.63
2023-07-24T00:39:24.852Z,97831.38
2023-07-24T00:42:26.281Z,97826.78
2023-07-24T00:45:27.794Z,97822.06
2023-07-24T00:48:29.660Z,97795.84
2023-07-24T00:51:31.934Z,97756.16
2023-07-24T00:54:34.947Z,97747.44
2023-07-24T00:57:36.575Z,97743.25
2023-07-24T01:00:39.680Z,97711.75
2023-07-24T01:03:41.193Z,97693.00
2023-07-24T01:06:42.761Z,97688.69
2023-07-24T01:09:44.366Z,97683.50
2023-07-24T01:13:01.113Z,97684.13
2023-07-24T01:16:10.678Z,97678.00
2023-07-24T01:19:47.376Z,97669.69
2023-07-24T01:23:06.886Z,97670.97
2023-07-24T01:26:09.107Z,97695.72
2023-07-24T01:29:10.519Z,97713.72
2023-07-24T01:32:11.957Z,97741.41
2023-07-24T01:35:13.581Z,97725.25
2023-07-24T01:38:15.683Z,97677.16
2023-07-24T01:41:17.981Z,97642.56
2023-07-24T01:44:19.484Z,97636.94
2023-07-24T01:47:21.396Z,97623.47
2023-07-24T01:50:22.829Z,97629.06
2023-07-24T01:53:24.288Z,97626.78
2023-07-24T01:56:25.794Z,97623.59
2023-07-24T01:59:27.277Z,97625.91
2023-07-24T02:02:28.744Z,97633.94
2023-07-24T02:05:30.849Z,97622.22
2023-07-24T02:08:32.288Z,97623.03
2023-07-24T02:11:33.729Z,97618.94
2023-07-24T02:14:35.174Z,97619.34
2023-07-24T02:17:36.870Z,97608.44
2023-07-24T02:20:38.297Z,97605.34
2023-07-24T02:23:39.830Z,97615.56
2023-07-24T02:26:41.231Z,97614.75
2023-07-24T02:29:42.636Z,97611.81
2023-07-24T02:32:44.089Z,97604.75
2023-07-24T02:35:45.582Z,97609.94
2023-07-24T02:38:47.032Z,97619.25
2023-07-24T02:41:51.320Z,97617.56
2023-07-24T02:44:54.178Z,97624.94
2023-07-24T02:47:55.661Z,97621.06
2023-07-24T02:50:57.143Z,97619.19
2023-07-24T02:53:58.613Z,97619.47
2023-07-24T02:57:00.043Z,97616.84
2023-07-24T03:00:01.451Z,97616.84
2023-07-24T03:03:03.025Z,97626.25
2023-07-24T03:06:04.509Z,97624.78
2023-07-24T03:09:05.919Z,97631.13
2023-07-24T03:12:07.664Z,97623.91
2023-07-24T03:15:09.450Z,97610.00
2023-07-24T03:18:10.868Z,97611.94
2023-07-24T03:21:12.346Z,97600.25
2023-07-24T03:24:13.780Z,97600.41
2023-07-24T03:27:15.258Z,97596.66
2023-07-24T03:30:16.707Z,97595.81
2023-07-24T03:33:18.106Z,97594.25
2023-07-24T03:36:19.817Z,97597.44
2023-07-24T03:39:21.964Z,97593.63
2023-07-24T03:42:28.221Z,97597.03
2023-07-24T03:45:29.822Z,97597.25
2023-07-24T03:48:31.212Z,97594.91
2023-07-24T03:51:34.316Z,97581.28
2023-07-24T03:54:35.737Z,97579.50
2023-07-24T03:57:37.319Z,97579.06
2023-07-24T04:00:38.791Z,97570.63
2023-07-24T04:03:40.347Z,97571.09
2023-07-24T04:06:41.790Z,97564.81
2023-07-24T04:09:43.250Z,97565.31
2023-07-24T04:12:44.652Z,97558.16
2023-07-24T04:15:46.171Z,97541.75
2023-07-24T04:18:47.553Z,97540.78
2023-07-24T04:21:48.984Z,97532.91
2023-07-24T04:24:50.474Z,97517.69
2023-07-24T04:27:51.999Z,97507.34
2023-07-24T04:30:53.511Z,97497.44
2023-07-24T04:33:54.998Z,97505.59
2023-07-24T04:36:56.399Z,97512.38
2023-07-24T04:39:58.049Z,97514.31
2023-07-24T04:42:59.540Z,97504.56
2023-07-24T04:46:01.031Z,97507.00
2023-07-24T04:49:02.481Z,97505.66
2023-07-24T04:52:04.269Z,97515.66
2023-07-24T04:55:06.260Z,97528.69
2023-07-24T04:58:07.645Z,97558.53
2023-07-24T05:01:10.256Z,97584.34
2023-07-24T05:04:11.768Z,97619.91
2023-07-24T05:07:13.201Z,97644.22
2023-07-24T05:10:14.806Z,97639.91
2023-07-24T05:13:16.324Z,97590.13
2023-07-24T05:16:17.785Z,97592.16
2023-07-24T05:19:19.208Z,97576.28
2023-07-24T05:22:20.768Z,97559.59
2023-07-24T05:25:22.271Z,97549.63
2023-07-24T05:28:23.680Z,97549.63
2023-07-24T05:31:25.140Z,97540.22
2023-07-24T05:34:27.172Z,97535.19
2023-07-24T05:37:28.581Z,97526.59
2023-07-24T05:40:29.965Z,97523.16
2023-07-24T05:43:32.258Z,97521.34
2023-07-24T05:46:33.953Z,97519.09
2023-07-24T05:49:35.575Z,97526.44
2023-07-24T05:52:36.984Z,97529.59
2023-07-24T05:55:38.422Z,97541.91
2023-07-24T05:58:39.821Z,97546.53
2023-07-24T06:01:41.382Z,97557.22
2023-07-24T06:04:42.827Z,97556.59
2023-07-24T06:07:44.423Z,97548.34
2023-07-24T06:10:48.942Z,97546.72
2023-07-24T06:13:50.597Z,97542.94
2023-07-24T06:16:52.037Z,97549.91
2023-07-24T06:19:53.435Z,97553.81
2023-07-24T06:22:54.834Z,97544.25
2023-07-24T06:25:56.456Z,97546.38
2023-07-24T06:28:57.923Z,97540.75
2023-07-24T06:31:59.343Z,97531.88
2023-07-24T06:35:00.768Z,97528.94
2023-07-24T06:38:02.224Z,97525.78
2023-07-24T06:41:04.133Z,97515.25
2023-07-24T06:44:05.572Z,97511.44
2023-07-24T06:47:07.049Z,97506.38
2023-07-24T06:50:09.059Z,97492.19
2023-07-24T06:53:10.553Z,97490.59
2023-07-24T06:56:12.044Z,97494.16
2023-07-24T06:59:13.513Z,97492.19
2023-07-24T07:02:14.940Z,97494.41
2023-07-24T07:05:16.511Z,97493.84
2023-07-24T07:08:17.911Z,97487.63
2023-07-24T07:11:19.327Z,97481.72
2023-07-24T07:14:20.802Z,97475.00
2023-07-24T07:17:22.260Z,97483.22
2023-07-24T07:20:23.711Z,97472.94
2023-07-24T07:23:25.152Z,97467.09
2023-07-24T07:26:26.631Z,97480.72
2023-07-24T07:29:28.098Z,97476.94
2023-07-24T07:32:29.552Z,97478.94
2023-07-24T07:35:31.053Z,97475.81
2023-07-24T07:38:33.057Z,97473.88
2023-07-24T07:41:34.485Z,97462.13
2023-07-24T07:44:35.975Z,97465.31
2023-07-24T07:47:37.748Z,97464.34
2023-07-24T07:50:39.239Z,97471.69
2023-07-24T07:53:41.421Z,97476.34
2023-07-24T07:56:43.264Z,97469.56
2023-07-24T07:59:44.758Z,97477.25
2023-07-24T08:02:46.170Z,97478.84
2023-07-24T08:05:47.651Z,97473.28
2023-07-24T08:08:49.113Z,97479.31
2023-07-24T08:11:52.244Z,97478.69
2023-07-24T08:14:53.648Z,97484.13
2023-07-24T08:17:55.077Z,97473.31
2023-07-24T08:20:56.517Z,97473.19
2023-07-24T08:23:59.100Z,97470.41
2023-07-24T08:27:00.522Z,97473.63
2023-07-24T08:30:02.000Z,97478.81
2023-07-24T08:33:03.979Z,97479.28
2023-07-24T08:36:07.582Z,97479.72
2023-07-24T08:39:09.015Z,97468.75
2023-07-24T08:42:12.245Z,97463.69
2023-07-24T08:45:14.839Z,97458.19
2023-07-24T08:48:16.638Z,97452.91
2023-07-24T08:51:19.927Z,97447.22
2023-07-24T08:54:21.415Z,97461.22
2023-07-24T08:57:23.072Z,97462.25
2023-07-24T09:00:24.540Z,97464.53
2023-07-24T09:03:26.425Z,97469.97
2023-07-24T09:06:28.861Z,97461.06
2023-07-24T09:09:32.120Z,97457.63
2023-07-24T09:12:33.518Z,97439.91
2023-07-24T09:15:44.896Z,97437.84
2023-07-24T09:18:46.313Z,97441.94
2023-07-24T09:21:47.788Z,97440.28
2023-07-24T09:24:53.975Z,97445.72
2023-07-24T09:27:55.613Z,97445.19
2023-07-24T09:30:59.229Z,97448.94
2023-07-24T09:34:00.795Z,97439.22
2023-07-24T09:37:02.426Z,97438.66
2023-07-24T09:40:07.451Z,97448.09
2023-07-24T09:43:40.988Z,97466.03
2023-07-24T09:46:47.789Z,97474.56
2023-07-24T09:50:04.898Z,97470.09
2023-07-24T09:53:07.081Z,97472.97
2023-07-24T09:56:10.643Z,97465.34
2023-07-24T09:59:13.291Z,97442.53
2023-07-24T10:02:14.832Z,97425.88
2023-07-24T10:05:17.061Z,97418.16
2023-07-24T10:08:20.037Z,97405.31
2023-07-24T10:11:21.688Z,97415.28
2023-07-24T10:14:23.391Z,97419.97
2023-07-24T10:17:41.920Z,97418.53
2023-07-24T10:20:43.585Z,97423.22
2023-07-24T10:23:50.026Z,97443.97
2023-07-24T10:26:56.190Z,97442.53
2023-07-24T10:30:22.599Z,97442.94
2023-07-24T10:33:33.155Z,97440.31
2023-07-24T10:36:37.023Z,97449.66
2023-07-24T10:39:42.648Z,97451.47
2023-07-24T10:42:44.141Z,97446.41
2023-07-24T10:45:52.496Z,97449.47
2023-07-24T10:48:53.984Z,97465.13
2023-07-24T10:51:59.236Z,97467.16
2023-07-24T10:55:04.838Z,97459.59
2023-07-24T10:58:07.350Z,97457.56
2023-07-24T11:01:10.495Z,97460.84
2023-07-24T11:04:13.714Z,97468.16
2023-07-24T11:07:15.770Z,97468.59
2023-07-24T11:10:22.232Z,97468.56
2023-07-24T11:13:28.855Z,97460.03
2023-07-24T11:16:34.578Z,97472.00
2023-07-24T11:19:36.503Z,97472.25
2023-07-24T11:22:43.465Z,97473.91
2023-07-24T11:25:45.831Z,97472.25
2023-07-24T11:28:47.259Z,97470.81
2023-07-24T11:31:55.158Z,97474.91
2023-07-24T11:34:57.387Z,97463.91
2023-07-24T11:37:58.957Z,97456.78
2023-07-24T11:41:02.260Z,97465.94
2023-07-24T11:44:04.119Z,97467.34
2023-07-24T11:47:06.996Z,97464.88
2023-07-24T11:50:09.050Z,97464.88
2023-07-24T11:53:23.258Z,97449.00
2023-07-24T11:56:24.724Z,97454.84
2023-07-24T11:59:26.961Z,97443.06
2023-07-24T12:02:29.383Z,97455.03
2023-07-24T12:05:31.056Z,97446.50
2023-07-24T12:08:34.822Z,97437.19
2023-07-24T12:11:46.593Z,97424.22
2023-07-24T12:14:48.448Z,97413.69
2023-07-24T12:17:49.914Z,97401.47
2023-07-24T12:20:51.469Z,97395.91
2023-07-24T12:23:52.924Z,97391.59
2023-07-24T12:26:54.351Z,97385.31
2023-07-24T12:29:55.890Z,97369.50
2023-07-24T12:32:57.449Z,97365.53
2023-07-24T12:35:58.888Z,97368.06
2023-07-24T12:39:00.330Z,97366.66
2023-07-24T12:42:01.768Z,97364.22
2023-07-24T12:45:06.129Z,97359.09
2023-07-24T12:48:07.789Z,97372.66
2023-07-24T12:51:09.431Z,97373.03
2023-07-24T12:54:22.290Z,97376.03
2023-07-24T12:57:32.320Z,97376.22
2023-07-24T13:00:33.876Z,97377.69
2023-07-24T13:03:35.756Z,97362.16
2023-07-24T13:06:37.698Z,97375.91
2023-07-24T13:09:39.143Z,97377.97
2023-07-24T13:12:40.542Z,97357.25
2023-07-24T13:15:42.073Z,97346.31
2023-07-24T13:18:44.167Z,97348.75
2023-07-24T13:21:47.114Z,97340.94
2023-07-24T13:24:48.729Z,97343.75
2023-07-24T13:27:51.357Z,97327.81
2023-07-24T13:30:53.025Z,97333.44
2023-07-24T13:33:54.504Z,97327.72
2023-07-24T13:36:56.012Z,97318.69
2023-07-24T13:39:57.416Z,97316.66
2023-07-24T13:42:58.874Z,97311.97
2023-07-24T13:46:00.513Z,97306.09
2023-07-24T13:49:02.035Z,97288.03
2023-07-24T13:52:03.643Z,97280.63
2023-07-24T13:55:05.814Z,97279.59
2023-07-24T13:58:07.291Z,97297.06
2023-07-24T14:01:08.786Z,97280.50
2023-07-24T14:04:10.356Z,97277.28
2023-07-24T14:07:14.061Z,97270.31
2023-07-24T14:10:15.606Z,97267.25
2023-07-24T14:13:17.002Z,97273.22
2023-07-24T14:16:18.801Z,97266.06
2023-07-24T14:19:20.340Z,97259.50
2023-07-24T14:22:21.803Z,97244.22
2023-07-24T14:25:23.259Z,97243.13
2023-07-24T14:28:24.718Z,97245.16
2023-07-24T14:31:26.304Z,97239.00
2023-07-24T14:34:27.821Z,97237.34
2023-07-24T14:37:29.403Z,97237.19
2023-07-24T14:40:30.833Z,97227.38
2023-07-24T14:43:32.448Z,97229.41
2023-07-24T14:46:33.919Z,97229.84
2023-07-24T14:49:35.412Z,97215.72
2023-07-24T14:52:36.949Z,97221.47
2023-07-24T14:55:38.450Z,97210.41
2023-07-24T14:58:43.025Z,97218.00
2023-07-24T15:01:44.569Z,97221.16
2023-07-24T15:04:52.116Z,97231.75
2023-07-24T15:07:53.602Z,97225.84
2023-07-24T15:10:55.134Z,97221.34
2023-07-24T15:13:56.544Z,97235.91
2023-07-24T15:16:58.052Z,97216.16
2023-07-24T15:19:59.455Z,97227.94
2023-07-24T15:23:01.113Z,97226.22
2023-07-24T15:26:02.744Z,97224.38
2023-07-24T15:29:04.430Z,97222.06
2023-07-24T15:32:07.055Z,97225.94
2023-07-24T15:35:08.569Z,97218.75
2023-07-24T15:38:09.997Z,97224.13
2023-07-24T15:41:11.417Z,97231.34
2023-07-24T15:44:12.830Z,97235.75
2023-07-24T15:47:14.290Z,97236.38
2023-07-24T15:50:15.929Z,97250.00
2023-07-24T15:53:17.310Z,97263.25
2023-07-24T15:56:18.884Z,97267.44
2023-07-24T15:59:20.357Z,97263.88
2023-07-24T16:02:21.878Z,97265.09
2023-07-24T16:05:23.447Z,97246.72
2023-07-24T16:08:25.228Z,97246.44
2023-07-24T16:11:28.248Z,97238.78
2023-07-24T16:14:30.098Z,97231.06
2023-07-24T16:17:33.742Z,97243.34
2023-07-24T16:20:36.055Z,97243.50
2023-07-24T16:23:37.726Z,97246.38
2023-07-24T16:26:39.940Z,97242.91
2023-07-24T16:29:41.382Z,97231.66
2023-07-24T16:32:49.145Z,97221.25
2023-07-24T16:35:52.232Z,97220.22
2023-07-24T16:38:53.717Z,97216.94
2023-07-24T16:41:55.328Z,97215.59
2023-07-24T16:44:59.504Z,97208.25
2023-07-24T16:48:03.224Z,97195.44
2023-07-24T16:51:05.156Z,97181.31
2023-07-24T16:54:06.834Z,97183.13
2023-07-24T16:57:08.290Z,97199.84
2023-07-24T17:00:10.436Z,97219.06
2023-07-24T17:03:12.097Z,97201.97
2023-07-24T17:06:13.543Z,97184.09
2023-07-24T17:09:15.037Z,97179.22
2023-07-24T17:12:16.638Z,97174.97
2023-07-24T17:15:18.105Z,97132.72
2023-07-24T17:18:19.554Z,97138.38
2023-07-24T17:21:22.496Z,97182.84
2023-07-24T17:24:24.062Z,97189.47
2023-07-24T17:27:26.370Z,97201.03
2023-07-24T17:30:27.802Z,97203.31
2023-07-24T17:33:29.241Z,97223.63
2023-07-24T17:36:30.647Z,97207.66
2023-07-24T17:39:32.071Z,97193.88
2023-07-24T17:42:33.617Z,97214.97
2023-07-24T17:45:35.524Z,97221.47
2023-07-24T17:48:37.961Z,97229.97
2023-07-24T17:51:39.474Z,97246.81
2023-07-24T17:54:46.669Z,97244.97
2023-07-24T17:57:50.751Z,97242.91
2023-07-24T18:00:53.623Z,97246.16
2023-07-24T18:03:55.093Z,97230.13
2023-07-24T18:06:56.754Z,97228.53
2023-07-24T18:09:58.138Z,97234.47
2023-07-24T18:12:59.898Z,97251.38
2023-07-24T18:16:01.324Z,97248.91
2023-07-24T18:19:04.820Z,97247.59
2023-07-24T18:22:06.287Z,97248.13
2023-07-24T18:25:08.308Z,97248.00
2023-07-24T18:28:12.627Z,97252.88
2023-07-24T18:31:14.208Z,97251.63
2023-07-24T18:34:16.348Z,97249.03
2023-07-24T18:37:17.749Z,97249.91
2023-07-24T18:40:19.178Z,97252.13
2023-07-24T18:43:20.582Z,97262.72
2023-07-24T18:46:22.068Z,97261.75
2023-07-24T18:49:23.733Z,97264.38
2023-07-24T18:52:25.132Z,97271.19
2023-07-24T18:55:26.530Z,97269.97
2023-07-24T18:58:28.010Z,97278.41
2023-07-24T19:01:29.876Z,97271.09
2023-07-24T19:04:31.562Z,97282.44
2023-07-24T19:07:32.947Z,97278.16
2023-07-24T19:10:34.508Z,97290.03
2023-07-24T19:13:37.124Z,97298.47
2023-07-24T19:16:38.852Z,97305.97
2023-07-24T19:19:40.334Z,97302.53
2023-07-24T19:22:41.771Z,97309.06
2023-07-24T19:25:43.236Z,97318.72
2023-07-24T19:28:50.892Z,97328.00
2023-07-24T19:31:53.716Z,97332.25
2023-07-24T19:34:57.226Z,97346.09
2023-07-24T19:37:58.682Z,97338.66
2023-07-24T19:41:01.993Z,97348.50
2023-07-24T19:44:03.445Z,97343.59
2023-07-24T19:47:05.301Z,97345.19
2023-07-24T19:50:07.379Z,97342.97
2023-07-24T19:53:08.916Z,97341.31
2023-07-24T19:56:10.510Z,97351.75
2023-07-24T19:59:11.989Z,97363.97
2023-07-24T20:02:13.748Z,97357.78
2023-07-24T20:05:15.254Z,97355.16
2023-07-24T20:08:16.714Z,97347.56
2023-07-24T20:11:18.165Z,97342.41
2023-07-24T20:14:19.661Z,97346.06
2023-07-24T20:17:21.138Z,97343.50
2023-07-24T20:20:22.642Z,97347.00
2023-07-24T20:23:24.485Z,97341.88
2023-07-24T20:26:25.962Z,97348.56
2023-07-24T20:29:27.404Z,97344.50
2023-07-24T20:32:30.552Z,97336.28
2023-07-24T20:35:33.367Z,97333.34
2023-07-24T20:38:36.372Z,97331.50
2023-07-24T20:41:37.819Z,97338.22
2023-07-24T20:44:39.207Z,97358.34
2023-07-24T20:47:40.685Z,97358.59
2023-07-24T20:50:42.141Z,97364.78
2023-07-24T20:53:43.916Z,97364.41
2023-07-24T20:56:45.317Z,97374.47
2023-07-24T20:59:47.576Z,97365.16
2023-07-24T21:02:49.140Z,97358.06
2023-07-24T21:05:50.695Z,97362.47
2023-07-24T21:08:52.183Z,97367.78
2023-07-24T21:11:53.625Z,97371.09
2023-07-24T21:14:55.058Z,97371.84
2023-07-24T21:17:56.522Z,97369.13
2023-07-24T21:21:00.660Z,97378.59
2023-07-24T21:24:03.353Z,97379.09
2023-07-24T21:27:04.996Z,97386.25
2023-07-24T21:30:07.556Z,97387.00
2023-07-24T21:33:08.948Z,97384.44
2023-07-24T21:36:10.603Z,97389.63
2023-07-24T21:39:12.047Z,97379.28
2023-07-24T21:42:13.468Z,97396.22
2023-07-24T21:45:14.965Z,97402.19
2023-07-24T21:48:16.790Z,97380.53
2023-07-24T21:51:18.210Z,97390.44
2023-07-24T21:54:19.662Z,97395.94
2023-07-24T21:57:22.664Z,97400.94
2023-07-24T22:00:26.063Z,97407.06
2023-07-24T22:03:27.590Z,97412.09
2023-07-24T22:06:29.208Z,97409.00
2023-07-24T22:09:31.096Z,97405.81
2023-07-24T22:12:33.869Z,97418.50
2023-07-24T22:15:35.338Z,97412.16
2023-07-24T22:18:36.826Z,97422.47
2023-07-24T22:21:38.248Z,97417.13
2023-07-24T22:24:40.430Z,97412.88
2023-07-24T22:27:41.972Z,97406.00
2023-07-24T22:30:43.519Z,97407.25
2023-07-24T22:33:44.949Z,97411.63
2023-07-24T22:36:46.360Z,97410.44
2023-07-24T22:39:48.079Z,97402.91
2023-07-24T22:42:49.507Z,97413.44
2023-07-24T22:45:51.070Z,97408.25
2023-07-24T22:48:52.537Z,97404.78
2023-07-24T22:51:54.419Z,97406.16
2023-07-24T22:54:55.944Z,97404.53
2023-07-24T22:57:57.975Z,97403.72
2023-07-24T23:00:59.506Z,97404.44
2023-07-24T23:04:01.018Z,97412.41
2023-07-24T23:07:02.477Z,97404.84
2023-07-24T23:10:04.159Z,97403.81
2023-07-24T23:13:05.661Z,97406.84
2023-07-24T23:16:07.315Z,97410.63
2023-07-24T23:19:09.064Z,97411.88
2023-07-24T23:22:10.529Z,97418.81
2023-07-24T23:25:11.908Z,97419.28
2023-07-24T23:28:14.421Z,97421.94
2023-07-24T23:31:15.912Z,97418.97
2023-07-24T23:34:17.364Z,97424.84
2023-07-24T23:37:18.772Z,97419.31
2023-07-24T23:40:20.177Z,97408.13
2023-07-24T23:43:21.598Z,97410.22
2023-07-24T23:46:23.061Z,97406.25
2023-07-24T23:49:24.554Z,97406.78
2023-07-24T23:52:25.976Z,97408.53
2023-07-24T23:55:31.570Z,97402.66
2023-07-24T23:58:32.970Z,97393.47
